Time;durP1;ratioP1;P1;durP2;ratioP2;P2;SDS_P1;SDS_P2;PMS_P1;PMS_P2;Temp;Humidity;BMP_temperature;BMP_pressure;BME280_temperature;BME280_humidity;BME280_pressure;Samples;Min_cycle;Max_cycle;Signal;HPM_P1;HPM_P2
2021/10/01 00:01:54;;;;;;;2.88;1.40;;;;;;;6.48;100.00;96610.31;5101392;28;24477;-77
2021/10/01 00:04:21;;;;;;;3.40;1.50;;;;;;;6.49;100.00;96606.88;5096433;28;24442;-78
2021/10/01 00:06:47;;;;;;;4.53;1.42;;;;;;;6.60;100.00;96600.50;5111002;28;24436;-79
2021/10/01 00:09:14;;;;;;;3.25;1.50;;;;;;;6.57;100.00;96598.88;5099689;28;24434;-79
2021/10/01 00:11:43;;;;;;;1.85;1.20;;;;;;;6.66;100.00;96588.25;5100583;28;24469;-80
2021/10/01 00:14:10;;;;;;;7.13;1.67;;;;;;;6.73;99.55;96594.06;5095714;28;24465;-80
2021/10/01 00:16:37;;;;;;;2.40;1.50;;;;;;;6.70;99.55;96589.84;5088865;28;21360;-81
2021/10/01 00:19:04;;;;;;;2.20;1.38;;;;;;;6.73;99.06;96582.00;5089404;28;24463;-81
2021/10/01 00:21:30;;;;;;;1.90;1.27;;;;;;;6.68;99.11;96580.50;5092440;28;24480;-80
2021/10/01 00:23:57;;;;;;;2.08;1.30;;;;;;;6.69;99.47;96583.03;5095319;28;24971;-80
2021/10/01 00:26:23;;;;;;;4.45;1.55;;;;;;;6.71;99.54;96580.38;5089011;28;24438;-80
2021/10/01 00:28:50;;;;;;;2.75;1.48;;;;;;;6.61;99.09;96579.88;5088609;28;24442;-80
2021/10/01 00:31:16;;;;;;;2.08;1.40;;;;;;;6.45;100.00;96566.69;5094196;28;24804;-81
2021/10/01 00:33:44;;;;;;;2.25;1.42;;;;;;;6.34;100.00;96578.22;5093196;28;24441;-81
2021/10/01 00:36:10;;;;;;;7.30;1.40;;;;;;;6.41;100.00;96570.22;5088458;28;24476;-81
2021/10/01 00:38:37;;;;;;;3.45;1.30;;;;;;;6.50;100.00;96575.09;5096303;28;24537;-80
2021/10/01 00:41:03;;;;;;;2.30;1.35;;;;;;;6.51;100.00;96574.19;5090174;28;24441;-79
2021/10/01 00:43:30;;;;;;;2.80;1.25;;;;;;;6.55;99.90;96572.34;5096714;28;24445;-79
2021/10/01 00:45:56;;;;;;;2.78;1.50;;;;;;;6.53;99.15;96556.97;5096043;28;24445;-79
2021/10/01 00:48:23;;;;;;;2.08;1.15;;;;;;;6.48;99.41;96558.00;5100263;28;24450;-80
2021/10/01 00:50:50;;;;;;;1.88;1.35;;;;;;;6.50;99.71;96561.38;5109180;28;24438;-80
2021/10/01 00:53:18;;;;;;;1.87;1.20;;;;;;;6.37;100.00;96560.09;5097873;28;24568;-80
2021/10/01 00:55:45;;;;;;;3.88;1.30;;;;;;;6.47;99.90;96552.03;5106412;28;24441;-80
2021/10/01 00:58:11;;;;;;;2.15;1.10;;;;;;;6.52;99.13;96544.97;5125244;28;24819;-80
2021/10/01 01:00:48;;;;;;;2.58;1.48;;;;;;;6.49;99.29;96542.53;5126426;28;24434;-80
2021/10/01 01:03:14;;;;;;;2.30;1.60;;;;;;;6.52;99.50;96544.97;5117239;28;24445;-80
2021/10/01 01:05:48;;;;;;;2.65;1.35;;;;;;;6.52;99.11;96539.81;5132993;28;24468;-80
2021/10/01 01:08:21;;;;;;;2.25;1.35;;;;;;;6.54;98.72;96529.50;5128933;28;24441;-77
2021/10/01 01:10:55;;;;;;;2.38;1.20;;;;;;;6.57;98.43;96531.97;5113783;28;24417;-77
2021/10/01 01:13:31;;;;;;;2.93;1.33;;;;;;;6.51;98.35;96535.59;5094959;28;24503;-77
2021/10/01 01:16:03;;;;;;;2.45;1.33;;;;;;;6.50;95.30;96530.50;5093543;28;24814;-77
2021/10/01 01:18:32;;;;;;;2.15;1.35;;;;;;;6.39;95.15;96523.16;5093301;28;24461;-77
2021/10/01 01:21:02;;;;;;;2.13;1.00;;;;;;;6.32;92.34;96523.41;5093237;28;24422;-77
2021/10/01 01:23:55;;;;;;;2.00;1.30;;;;;;;6.23;91.61;96524.53;5093216;28;24418;-77
2021/10/01 01:26:38;;;;;;;2.45;1.33;;;;;;;6.03;93.87;96518.34;5093247;28;24450;-77
2021/10/01 01:29:18;;;;;;;3.90;1.60;;;;;;;5.99;94.04;96521.06;5093398;28;24464;-77
2021/10/01 01:31:50;;;;;;;2.63;1.50;;;;;;;5.99;94.29;96519.31;5095533;28;24457;-77
2021/10/01 01:34:22;;;;;;;2.10;1.30;;;;;;;6.05;93.61;96515.72;5113371;28;24906;-78
2021/10/01 01:36:52;;;;;;;2.95;1.42;;;;;;;5.88;94.75;96511.09;5113272;28;25023;-77
2021/10/01 01:39:20;;;;;;;2.63;1.67;;;;;;;5.77;96.11;96514.00;5113202;28;24438;-77
2021/10/01 01:41:47;;;;;;;1.55;1.30;;;;;;;5.82;96.19;96508.72;5113614;28;25032;-78
2021/10/01 01:44:14;;;;;;;1.92;1.02;;;;;;;5.82;97.31;96501.88;5109490;28;24434;-78
2021/10/01 01:46:42;;;;;;;2.33;1.40;;;;;;;5.73;98.00;96502.16;5094715;28;24438;-78
2021/10/01 01:49:09;;;;;;;3.53;1.77;;;;;;;5.79;99.43;96506.25;5101328;28;24981;-77
2021/10/01 01:51:38;;;;;;;2.38;1.02;;;;;;;5.85;99.50;96500.06;5113884;28;24483;-77
2021/10/01 01:54:05;;;;;;;1.80;1.30;;;;;;;5.88;99.42;96490.53;5102196;28;24437;-77
2021/10/01 01:56:33;;;;;;;3.28;1.40;;;;;;;5.91;99.16;96495.56;5095375;28;24441;-78
2021/10/01 01:59:02;;;;;;;1.95;1.30;;;;;;;5.93;99.49;96496.41;5099552;28;24815;-78
2021/10/01 02:01:30;;;;;;;2.92;1.38;;;;;;;5.99;98.42;96492.78;5115705;28;24663;-78
2021/10/01 02:03:58;;;;;;;2.10;1.40;;;;;;;5.96;98.58;96488.56;5100839;28;24434;-78
2021/10/01 02:06:25;;;;;;;3.00;1.30;;;;;;;5.94;99.00;96480.09;5095346;28;24438;-78
2021/10/01 02:08:55;;;;;;;1.88;1.30;;;;;;;5.98;98.18;96473.94;5095941;28;24435;-78
2021/10/01 02:11:21;;;;;;;2.67;1.38;;;;;;;5.97;98.50;96477.41;5095644;28;24430;-78
2021/10/01 02:13:50;;;;;;;2.13;1.30;;;;;;;5.99;98.44;96474.78;5104523;28;24553;-78
2021/10/01 02:16:19;;;;;;;3.45;1.00;;;;;;;5.99;98.11;96474.78;5104251;28;25031;-78
2021/10/01 02:18:48;;;;;;;2.35;1.30;;;;;;;5.96;98.53;96470.56;5103122;28;24519;-78
2021/10/01 02:21:17;;;;;;;2.25;1.20;;;;;;;5.87;97.78;96470.03;5092306;28;24442;-77
2021/10/01 02:23:44;;;;;;;1.65;1.23;;;;;;;5.90;96.51;96459.66;5095222;28;24434;-77
2021/10/01 02:26:35;;;;;;;2.00;1.30;;;;;;;5.76;96.48;96467.81;5095662;28;24442;-78
2021/10/01 02:29:09;;;;;;;2.30;1.30;;;;;;;5.70;97.38;96460.28;5105511;27;25142;-78
2021/10/01 02:31:45;;;;;;;2.60;1.30;;;;;;;5.62;98.23;96455.38;5109051;28;24432;-78
2021/10/01 02:34:14;;;;;;;3.57;1.50;;;;;;;5.41;100.00;96445.78;5108776;28;24936;-78
2021/10/01 02:36:40;;;;;;;2.28;1.17;;;;;;;5.49;100.00;96441.28;5098315;28;24441;-78
2021/10/01 02:39:07;;;;;;;1.70;1.20;;;;;;;5.54;99.85;96444.53;5098092;28;24454;-78
2021/10/01 02:41:34;;;;;;;2.85;1.10;;;;;;;5.57;98.29;96444.44;5105197;28;24438;-78
2021/10/01 02:44:01;;;;;;;2.08;0.98;;;;;;;5.61;97.56;96447.75;5106539;28;24442;-78
2021/10/01 02:46:27;;;;;;;2.30;1.30;;;;;;;5.58;97.43;96444.38;5096043;28;24596;-78
2021/10/01 02:48:54;;;;;;;2.40;1.30;;;;;;;5.53;98.15;96443.69;5095211;28;24446;-78
2021/10/01 02:51:24;;;;;;;1.48;1.13;;;;;;;5.58;98.23;96443.53;5093410;28;24445;-78
2021/10/01 02:53:56;;;;;;;1.60;1.10;;;;;;;5.62;98.58;96436.56;5109217;28;24430;-78
2021/10/01 02:56:27;;;;;;;3.25;1.35;;;;;;;5.62;98.95;96436.56;5079310;28;24446;-77
2021/10/01 02:58:58;;;;;;;1.85;1.13;;;;;;;5.61;98.45;96432.31;5073041;28;24508;-78
2021/10/01 03:01:28;;;;;;;2.90;1.48;;;;;;;5.63;98.31;96433.09;5085907;28;24449;-78
2021/10/01 03:03:59;;;;;;;1.85;1.35;;;;;;;5.72;97.54;96437.94;5112630;28;24482;-78
2021/10/01 03:06:27;;;;;;;2.30;1.40;;;;;;;5.75;97.13;96433.56;5094588;28;24445;-77
2021/10/01 03:08:54;;;;;;;2.83;1.38;;;;;;;5.70;97.90;96425.13;5095243;28;24508;-78
2021/10/01 03:11:24;;;;;;;5.20;1.35;;;;;;;5.70;98.35;96421.72;5104125;28;24449;-78
2021/10/01 03:13:52;;;;;;;1.75;1.30;;;;;;;5.68;98.36;96424.38;5107470;28;25013;-78
2021/10/01 03:16:21;;;;;;;2.33;1.15;;;;;;;5.68;98.12;96416.66;5091009;28;24978;-77
2021/10/01 03:18:50;;;;;;;2.97;1.60;;;;;;;5.68;98.32;96420.97;5091060;28;24563;-78
2021/10/01 03:21:19;;;;;;;1.77;1.15;;;;;;;5.71;98.30;96426.84;5091269;28;24426;-77
2021/10/01 03:23:46;;;;;;;1.90;1.35;;;;;;;5.74;97.70;96428.44;5090943;28;24927;-77
2021/10/01 03:26:14;;;;;;;3.50;1.20;;;;;;;5.68;97.67;96418.38;5091039;28;24429;-77
2021/10/01 03:28:42;;;;;;;2.10;1.35;;;;;;;5.68;98.25;96426.94;5091063;28;24430;-77
2021/10/01 03:31:10;;;;;;;2.20;1.42;;;;;;;5.68;97.92;96420.97;5090929;28;24426;-78
2021/10/01 03:33:38;;;;;;;1.83;0.90;;;;;;;5.67;97.58;96422.66;5090742;28;24441;-77
2021/10/01 03:36:06;;;;;;;1.73;1.35;;;;;;;5.68;97.75;96416.66;5090896;28;24467;-77
2021/10/01 03:38:33;;;;;;;2.00;1.25;;;;;;;5.69;98.20;96417.50;5090834;28;24465;-78
2021/10/01 03:41:00;;;;;;;2.20;1.30;;;;;;;5.61;98.06;96414.34;5090868;28;24426;-77
2021/10/01 03:43:27;;;;;;;3.00;1.20;;;;;;;5.31;98.54;96406.72;5101779;28;24503;-77
2021/10/01 03:45:57;;;;;;;3.00;1.25;;;;;;;5.32;98.91;96408.41;5111152;28;24424;-78
2021/10/01 03:48:24;;;;;;;1.87;1.17;;;;;;;5.20;99.14;96403.66;5111154;28;25124;-77
2021/10/01 03:50:52;;;;;;;2.17;1.38;;;;;;;5.06;100.00;96399.78;5110890;28;24487;-80
2021/10/01 03:53:19;;;;;;;4.95;1.40;;;;;;;5.04;100.00;96393.88;5109148;28;24965;-80
2021/10/01 03:55:45;;;;;;;1.63;1.10;;;;;;;5.03;100.00;96389.59;5107409;28;24442;-80
2021/10/01 03:58:12;;;;;;;2.10;1.33;;;;;;;5.12;100.00;96393.63;5092528;28;24445;-79
2021/10/01 04:00:39;;;;;;;4.32;1.02;;;;;;;5.22;100.00;96389.88;5093548;28;24476;-79
2021/10/01 04:03:06;;;;;;;2.22;1.20;;;;;;;5.37;100.00;96390.28;5109224;28;24433;-79
2021/10/01 04:05:32;;;;;;;4.07;1.13;;;;;;;5.37;100.00;96391.09;5090771;28;24443;-79
2021/10/01 04:08:06;;;;;;;2.38;0.98;;;;;;;5.39;100.00;96389.34;5082417;28;24446;-80
2021/10/01 04:10:33;;;;;;;2.45;1.05;;;;;;;5.40;99.79;96385.88;5090993;28;24429;-80
2021/10/01 04:12:59;;;;;;;2.67;1.13;;;;;;;5.42;99.27;96388.41;5090834;28;24461;-79
2021/10/01 04:15:26;;;;;;;2.10;1.40;;;;;;;5.44;99.18;96386.63;5103212;28;24784;-79
2021/10/01 04:17:52;;;;;;;1.40;1.00;;;;;;;5.42;98.34;96383.28;5104993;28;24442;-79
2021/10/01 04:20:19;;;;;;;1.88;1.20;;;;;;;5.42;98.04;96385.84;5090552;28;24450;-79
2021/10/01 04:22:46;;;;;;;3.67;1.20;;;;;;;5.43;98.68;96382.38;5093818;28;24434;-79
2021/10/01 04:25:14;;;;;;;2.58;1.10;;;;;;;5.46;98.56;96384.84;5098095;28;24446;-80
2021/10/01 04:27:40;;;;;;;3.30;1.35;;;;;;;5.47;98.08;96387.34;5102715;28;24467;-79
2021/10/01 04:30:07;;;;;;;1.75;1.30;;;;;;;5.46;98.11;96379.72;5102786;28;24438;-79
2021/10/01 04:32:36;;;;;;;2.30;1.10;;;;;;;5.47;97.92;96374.50;5090386;28;24430;-80
2021/10/01 04:35:06;;;;;;;2.22;1.23;;;;;;;5.43;97.75;96379.81;5088559;28;24438;-79
2021/10/01 04:37:32;;;;;;;3.10;1.53;;;;;;;5.12;97.71;96388.50;5090732;28;24484;-78
2021/10/01 04:39:59;;;;;;;1.63;1.10;;;;;;;5.06;100.00;96384.38;5093257;28;25247;-78
2021/10/01 04:42:27;;;;;;;2.25;1.33;;;;;;;5.15;99.53;96385.81;5091386;28;24449;-78
2021/10/01 04:44:54;;;;;;;2.05;1.10;;;;;;;5.22;94.39;96387.28;5089300;28;24445;-78
2021/10/01 04:47:21;;;;;;;3.47;1.00;;;;;;;5.26;90.13;96391.44;5083845;28;24796;-78
2021/10/01 04:49:47;;;;;;;1.85;1.20;;;;;;;4.90;93.08;96384.91;5082369;28;24970;-78
2021/10/01 04:52:13;;;;;;;1.33;1.00;;;;;;;4.75;95.35;96381.94;5095661;28;24454;-78
2021/10/01 04:54:40;;;;;;;1.23;1.00;;;;;;;4.71;96.40;96380.34;5082683;28;25010;-78
2021/10/01 04:57:07;;;;;;;4.20;1.33;;;;;;;4.77;94.71;96385.28;5088717;28;24509;-78
2021/10/01 04:59:35;;;;;;;1.75;1.00;;;;;;;4.74;94.52;96372.53;5094780;28;24987;-76
2021/10/01 05:02:02;;;;;;;2.25;1.30;;;;;;;4.59;97.00;96381.53;5093636;28;24512;-76
2021/10/01 05:04:28;;;;;;;3.67;1.23;;;;;;;4.71;94.53;96382.91;5093395;28;24429;-76
2021/10/01 05:06:55;;;;;;;1.85;1.27;;;;;;;4.60;95.83;96387.53;5092793;28;24438;-76
2021/10/01 05:09:21;;;;;;;1.73;1.13;;;;;;;4.58;96.90;96379.00;5093477;28;24421;-76
2021/10/01 05:11:48;;;;;;;1.77;1.15;;;;;;;4.57;97.94;96377.34;5092043;28;24437;-77
2021/10/01 05:14:14;;;;;;;1.40;1.15;;;;;;;4.60;98.25;96387.53;5086262;28;24443;-76
2021/10/01 05:16:43;;;;;;;2.63;1.27;;;;;;;4.64;97.74;96380.56;5089707;28;24993;-76
2021/10/01 05:19:09;;;;;;;2.30;1.20;;;;;;;4.66;96.33;96371.91;5098547;28;24562;-76
2021/10/01 05:21:36;;;;;;;1.50;1.10;;;;;;;4.60;97.07;96387.53;5093472;28;24479;-76
2021/10/01 05:24:02;;;;;;;2.25;1.25;;;;;;;4.64;97.83;96383.97;5092801;28;24434;-76
2021/10/01 05:26:29;;;;;;;2.33;1.52;;;;;;;4.68;97.74;96377.03;5092992;28;24430;-76
2021/10/01 05:28:56;;;;;;;1.42;1.25;;;;;;;4.65;97.50;96377.94;5092850;28;24441;-77
2021/10/01 05:31:23;;;;;;;2.50;1.20;;;;;;;4.73;97.72;96377.72;5093330;28;24430;-75
2021/10/01 05:33:51;;;;;;;1.77;1.07;;;;;;;4.78;98.15;96370.72;5093099;28;24475;-75
2021/10/01 05:36:18;;;;;;;2.03;1.33;;;;;;;4.80;98.36;96374.09;5092493;28;24822;-76
2021/10/01 05:38:44;;;;;;;1.58;1.10;;;;;;;4.84;98.15;96371.38;5074046;28;24434;-75
2021/10/01 05:41:11;;;;;;;2.05;1.30;;;;;;;4.89;97.67;96371.22;5072311;28;25139;-76
2021/10/01 05:43:37;;;;;;;5.78;1.67;;;;;;;5.00;95.95;96371.72;5072643;28;24434;-75
2021/10/01 05:46:03;;;;;;;1.73;1.02;;;;;;;5.07;93.23;96370.66;5072499;28;24431;-76
2021/10/01 05:48:32;;;;;;;1.45;1.17;;;;;;;4.95;92.22;96373.59;5072518;28;24422;-76
2021/10/01 05:51:05;;;;;;;1.50;1.20;;;;;;;4.80;95.12;96368.94;5072307;28;24461;-71
2021/10/01 05:54:01;;;;;;;2.28;1.30;;;;;;;4.78;96.52;96373.28;5072086;28;24800;-75
2021/10/01 05:56:28;;;;;;;2.22;1.15;;;;;;;4.91;97.02;96377.16;5072152;28;24784;-75
2021/10/01 05:58:54;;;;;;;1.73;1.23;;;;;;;4.94;97.31;96374.50;5075931;28;24430;-75
2021/10/01 06:01:21;;;;;;;1.27;1.00;;;;;;;4.87;97.80;96374.75;5110180;23;24829;-79
2021/10/01 06:03:49;;;;;;;1.10;1.00;;;;;;;4.87;98.24;96373.00;5040408;28;24436;-77
2021/10/01 06:06:16;;;;;;;1.02;0.90;;;;;;;4.88;98.45;96372.13;5039918;28;24814;-78
2021/10/01 06:08:43;;;;;;;1.50;0.90;;;;;;;4.99;98.19;96369.22;5039486;28;24440;-78
2021/10/01 06:11:09;;;;;;;1.30;0.90;;;;;;;5.05;98.23;96374.19;5032571;28;24429;-78
2021/10/01 06:13:37;;;;;;;1.67;1.17;;;;;;;5.22;98.25;96376.19;5020469;28;24440;-77
2021/10/01 06:16:03;;;;;;;2.25;0.95;;;;;;;5.33;97.41;96371.53;5019666;28;24463;-78
2021/10/01 06:18:30;;;;;;;1.27;0.85;;;;;;;5.48;97.24;96365.91;5020067;28;24448;-78
2021/10/01 06:20:56;;;;;;;3.25;1.00;;;;;;;5.34;95.86;96368.13;5019991;28;24463;-78
2021/10/01 06:23:27;;;;;;;1.23;0.98;;;;;;;5.28;97.38;96370.88;5020379;28;24439;-78
2021/10/01 06:25:53;;;;;;;2.95;1.30;;;;;;;5.39;97.55;96375.66;5019852;28;24543;-78
2021/10/01 06:28:20;;;;;;;0.88;0.80;;;;;;;5.43;97.47;96374.66;5020427;28;24961;-78
2021/10/01 06:30:46;;;;;;;1.88;1.20;;;;;;;5.59;97.39;96375.81;5019931;28;24472;-78
2021/10/01 06:33:13;;;;;;;2.22;1.00;;;;;;;5.79;97.31;96373.44;5020822;28;24532;-78
2021/10/01 06:35:39;;;;;;;1.80;1.00;;;;;;;5.74;95.97;96380.44;5010910;28;24439;-77
2021/10/01 06:38:06;;;;;;;2.17;1.20;;;;;;;5.77;96.49;96379.50;5014735;28;24479;-78
2021/10/01 06:40:33;;;;;;;2.70;1.30;;;;;;;5.66;96.56;96373.91;5013583;28;24463;-79
2021/10/01 06:43:01;;;;;;;1.70;1.00;;;;;;;5.63;96.77;96374.81;5014418;28;24444;-79
2021/10/01 06:45:29;;;;;;;1.60;1.00;;;;;;;5.60;97.70;96372.38;5013765;28;24538;-79
2021/10/01 06:48:09;;;;;;;3.17;1.50;;;;;;;5.69;97.53;96376.38;5005925;28;24436;-79
2021/10/01 06:51:06;;;;;;;2.63;1.10;;;;;;;5.76;97.79;96382.97;5012794;28;24459;-78
2021/10/01 07:21:32;;;;;;;8.38;2.22;;;;;;;7.51;92.81;96362.66;4980170;28;24514;-80
2021/10/01 07:35:10;;;;;;;6.18;2.45;;;;;;;8.81;86.52;96360.50;5014308;28;24991;-82
2021/10/01 08:21:30;;;;;;;7.15;2.22;;;;;;;11.09;81.23;96333.38;5016884;28;24876;-76
2021/10/01 08:23:59;;;;;;;5.53;1.80;;;;;;;11.36;81.57;96331.78;5017180;28;24498;-80
2021/10/01 08:26:26;;;;;;;4.25;1.80;;;;;;;11.61;79.16;96336.41;5016607;28;24449;-80
2021/10/01 08:28:53;;;;;;;6.60;2.00;;;;;;;11.50;77.41;96340.56;5023764;28;24433;-81
2021/10/01 08:31:20;;;;;;;6.75;2.05;;;;;;;11.57;77.32;96332.34;5016103;28;24444;-81
2021/10/01 08:33:48;;;;;;;7.88;3.17;;;;;;;11.72;77.16;96338.41;5018019;28;24499;-80
2021/10/01 08:36:17;;;;;;;9.35;2.92;;;;;;;11.91;77.02;96322.59;5017043;28;24436;-80
2021/10/01 08:38:43;;;;;;;4.18;1.70;;;;;;;11.96;75.89;96325.75;5016939;28;24440;-77
2021/10/01 08:41:11;;;;;;;3.10;1.52;;;;;;;11.86;75.99;96317.69;5014862;28;24459;-79
2021/10/01 08:43:39;;;;;;;3.67;1.58;;;;;;;11.92;75.63;96320.84;5013836;28;24854;-77
2021/10/01 08:46:06;;;;;;;2.67;1.20;;;;;;;12.47;75.13;96313.16;5016331;28;25001;-80
2021/10/01 08:48:34;;;;;;;3.78;1.63;;;;;;;12.43;74.72;96309.06;5016433;28;24451;-77
2021/10/01 08:51:02;;;;;;;2.40;1.38;;;;;;;12.66;75.92;96310.25;5016056;28;24436;-78
2021/10/01 08:53:29;;;;;;;4.22;1.58;;;;;;;12.72;74.31;96307.25;5014771;28;24969;-77
2021/10/01 08:55:56;;;;;;;3.33;1.65;;;;;;;12.83;75.58;96299.63;5014990;28;24966;-78
2021/10/01 08:58:25;;;;;;;11.85;2.50;;;;;;;12.72;73.75;96302.06;5015958;28;24441;-78
2021/10/01 09:00:51;;;;;;;3.92;1.70;;;;;;;13.02;74.76;96301.06;5014668;28;24500;-77
2021/10/01 09:03:18;;;;;;;2.80;1.85;;;;;;;12.95;74.59;96295.41;5014266;28;24443;-77
2021/10/01 09:05:45;;;;;;;3.50;1.67;;;;;;;13.17;74.85;96289.66;5013973;28;24829;-78
2021/10/01 09:08:15;;;;;;;5.65;1.75;;;;;;;13.32;73.42;96291.28;5014579;28;24946;-78
2021/10/01 09:10:42;;;;;;;6.10;1.67;;;;;;;13.58;72.15;96291.34;5017357;28;24421;-78
2021/10/01 09:13:09;;;;;;;2.97;1.70;;;;;;;13.44;73.48;96281.00;5016856;28;25020;-77
2021/10/01 09:15:40;;;;;;;6.07;2.08;;;;;;;13.66;73.49;96289.06;5016592;28;24456;-77
2021/10/01 09:18:07;;;;;;;3.00;1.45;;;;;;;14.00;74.77;96279.81;5017137;28;24424;-78
2021/10/01 09:20:33;;;;;;;8.55;2.00;;;;;;;13.67;71.79;96275.09;5017079;28;24463;-78
2021/10/01 09:23:15;;;;;;;4.70;1.58;;;;;;;13.63;72.57;96273.66;5015554;28;24420;-77
2021/10/01 09:25:42;;;;;;;3.42;1.70;;;;;;;13.60;73.04;96273.84;5013106;28;24439;-77
2021/10/01 09:28:12;;;;;;;3.80;1.95;;;;;;;13.99;72.28;96267.72;5015036;28;24421;-78
2021/10/01 09:30:45;;;;;;;3.58;1.58;;;;;;;13.90;71.98;96264.91;5016563;28;24420;-79
2021/10/01 09:33:13;;;;;;;4.13;1.55;;;;;;;14.17;72.41;96268.25;5016670;28;24856;-78
2021/10/01 09:35:41;;;;;;;3.97;2.03;;;;;;;14.09;72.40;96261.88;5014793;28;24428;-77
2021/10/01 09:38:10;;;;;;;5.75;1.70;;;;;;;14.53;70.18;96258.81;5013355;28;25067;-78
2021/10/01 09:40:39;;;;;;;2.93;1.67;;;;;;;14.23;71.54;96252.16;5015620;28;24571;-78
2021/10/01 09:43:06;;;;;;;3.22;1.63;;;;;;;14.37;71.54;96248.59;5016354;28;24487;-78
2021/10/01 09:45:33;;;;;;;5.05;1.90;;;;;;;14.59;70.25;96250.56;5016243;28;24833;-78
2021/10/01 09:48:05;;;;;;;3.95;1.88;;;;;;;14.65;70.73;96251.91;5014983;28;24420;-77
2021/10/01 09:50:35;;;;;;;4.95;2.10;;;;;;;15.24;71.28;96239.75;5016101;28;24440;-77
2021/10/01 09:53:04;;;;;;;2.67;1.58;;;;;;;15.11;68.65;96231.13;5015335;28;24443;-78
2021/10/01 09:55:34;;;;;;;4.22;1.75;;;;;;;15.21;69.51;96237.34;5015991;28;24417;-78
2021/10/01 09:58:05;;;;;;;5.07;1.90;;;;;;;15.93;65.72;96228.50;5015974;28;24435;-78
2021/10/01 10:00:35;;;;;;;6.45;1.80;;;;;;;16.12;64.32;96226.13;5014878;28;25046;-78
2021/10/01 10:03:02;;;;;;;4.10;1.77;;;;;;;16.30;64.06;96213.41;5014913;28;24523;-78
2021/10/01 10:05:56;;;;;;;3.15;1.83;;;;;;;15.94;65.21;96211.88;5012484;28;24423;-78
2021/10/01 10:08:24;;;;;;;4.65;1.67;;;;;;;16.04;64.42;96214.63;5013080;28;24423;-78
2021/10/01 10:10:51;;;;;;;5.32;1.90;;;;;;;16.48;63.74;96223.38;5012964;28;24881;-78
2021/10/01 10:13:18;;;;;;;3.13;1.55;;;;;;;16.76;59.79;96214.19;5014142;28;24431;-78
2021/10/01 10:16:05;;;;;;;5.53;1.80;;;;;;;16.60;62.41;96214.56;5015436;28;24408;-78
2021/10/01 10:18:32;;;;;;;2.20;1.50;;;;;;;16.29;63.43;96214.38;5016078;28;24425;-78
2021/10/01 10:20:58;;;;;;;5.30;1.70;;;;;;;16.06;63.67;96203.09;5015913;28;24499;-78
2021/10/01 10:23:25;;;;;;;4.47;1.80;;;;;;;15.72;66.10;96208.31;5014535;28;24423;-78
2021/10/01 10:25:51;;;;;;;2.58;1.48;;;;;;;15.80;64.50;96201.69;5014909;28;24432;-78
2021/10/01 10:28:19;;;;;;;2.30;1.30;;;;;;;15.76;64.25;96206.31;5012566;28;24428;-77
2021/10/01 10:30:48;;;;;;;2.50;1.40;;;;;;;15.81;62.70;96203.34;5012687;28;24428;-77
2021/10/01 10:33:38;;;;;;;3.42;1.20;;;;;;;15.80;62.92;96192.06;5012748;28;24555;-78
2021/10/01 10:36:27;;;;;;;2.83;1.35;;;;;;;16.03;61.18;96197.28;5012287;28;24825;-78
2021/10/01 10:38:53;;;;;;;18.52;1.40;;;;;;;16.13;61.31;96195.59;5013032;28;24451;-78
2021/10/01 10:41:23;;;;;;;2.55;1.33;;;;;;;16.11;56.81;96190.50;5014342;28;24467;-78
2021/10/01 10:43:51;;;;;;;5.97;1.60;;;;;;;16.10;59.35;96191.47;5014113;28;24460;-78
2021/10/01 10:46:40;;;;;;;2.93;1.30;;;;;;;16.35;56.74;96187.75;5014500;28;24457;-78
2021/10/01 10:49:23;;;;;;;1.95;1.08;;;;;;;16.41;56.49;96183.81;5012680;28;24436;-78
2021/10/01 10:52:02;;;;;;;2.70;1.10;;;;;;;16.73;58.18;96180.41;5012342;28;24424;-78
2021/10/01 10:54:31;;;;;;;2.58;1.33;;;;;;;16.96;56.06;96182.00;5012270;28;24424;-78
2021/10/01 10:57:31;;;;;;;2.75;1.20;;;;;;;16.89;56.62;96175.63;5011839;28;24423;-77
2021/10/01 11:00:03;;;;;;;3.22;1.13;;;;;;;16.71;57.14;96172.69;5014439;28;24435;-78
2021/10/01 11:02:33;;;;;;;2.63;1.02;;;;;;;16.93;56.77;96163.94;5013607;28;24471;-77
2021/10/01 11:05:26;;;;;;;3.05;1.42;;;;;;;17.19;56.71;96164.41;5011113;28;24479;-77
2021/10/01 11:07:54;;;;;;;2.63;1.33;;;;;;;17.17;56.19;96167.16;5001726;28;24444;-77
2021/10/01 11:10:39;;;;;;;4.00;1.20;;;;;;;17.20;56.49;96160.84;5011751;28;24420;-77
2021/10/01 11:13:28;;;;;;;3.20;1.00;;;;;;;17.36;57.00;96153.38;5011599;28;24470;-77
2021/10/01 11:16:16;;;;;;;2.15;1.20;;;;;;;17.44;56.00;96155.34;5011256;28;24424;-77
2021/10/01 11:19:05;;;;;;;4.75;1.38;;;;;;;17.32;56.82;96151.16;5012917;28;24428;-77
2021/10/01 11:21:34;;;;;;;2.10;1.00;;;;;;;17.14;56.43;96143.03;5014600;28;24479;-77
2021/10/01 11:24:04;;;;;;;2.15;1.10;;;;;;;17.17;58.47;96138.38;5011812;28;24416;-77
2021/10/01 11:26:32;;;;;;;4.20;1.17;;;;;;;17.47;58.00;96142.00;5011211;28;24433;-77
2021/10/01 11:28:59;;;;;;;2.05;1.08;;;;;;;17.55;56.00;96136.13;5012928;28;24447;-78
2021/10/01 11:31:37;;;;;;;2.87;1.17;;;;;;;17.66;57.12;96125.56;5013973;28;24428;-78
2021/10/01 11:34:04;;;;;;;4.20;1.10;;;;;;;17.46;56.19;96123.78;5013876;28;24461;-79
2021/10/01 11:36:31;;;;;;;3.53;1.30;;;;;;;17.36;57.41;96126.38;5014208;28;24451;-78
2021/10/01 11:39:06;;;;;;;2.72;0.90;;;;;;;17.66;56.66;96117.69;5013981;28;24431;-78
2021/10/01 11:41:33;;;;;;;1.52;0.90;;;;;;;17.57;55.03;96115.84;5013718;28;24496;-78
2021/10/01 11:44:02;;;;;;;1.90;1.30;;;;;;;17.51;55.47;96104.13;5013859;28;24512;-78
2021/10/01 11:46:34;;;;;;;2.47;1.08;;;;;;;17.41;55.57;96104.06;5013475;28;24535;-78
2021/10/01 11:49:07;;;;;;;1.88;0.95;;;;;;;17.78;55.63;96113.22;5014228;28;24413;-77
2021/10/01 11:51:35;;;;;;;5.40;1.50;;;;;;;17.69;57.20;96100.88;5012826;28;24558;-77
2021/10/01 11:54:15;;;;;;;2.22;1.20;;;;;;;17.94;55.38;96099.63;5011355;28;24417;-77
2021/10/01 11:56:55;;;;;;;2.50;1.10;;;;;;;18.10;54.65;96087.66;5011342;28;24432;-78
2021/10/01 11:59:25;;;;;;;4.10;1.03;;;;;;;17.90;53.88;96080.72;5013123;28;24432;-78
2021/10/01 12:01:55;;;;;;;2.28;1.00;;;;;;;17.69;53.16;96077.28;5027358;22;24480;-81
2021/10/01 12:04:31;;;;;;;2.22;1.08;;;;;;;17.72;52.24;96077.03;5012107;28;24428;-80
2021/10/01 12:07:01;;;;;;;2.78;1.40;;;;;;;17.69;53.46;96069.44;5012592;28;24401;-81
2021/10/01 12:09:28;;;;;;;2.42;1.02;;;;;;;17.78;53.02;96071.31;5012161;28;24988;-80
2021/10/01 12:11:55;;;;;;;1.75;1.05;;;;;;;17.74;51.61;96067.25;5012345;28;24463;-80
2021/10/01 12:14:22;;;;;;;1.17;0.82;;;;;;;17.80;52.99;96061.53;5011785;28;24494;-80
2021/10/01 12:16:55;;;;;;;1.85;0.90;;;;;;;18.00;52.12;96057.97;5011491;28;24448;-80
2021/10/01 12:19:23;;;;;;;2.97;1.10;;;;;;;18.00;51.11;96051.91;5011518;28;24482;-80
2021/10/01 12:22:02;;;;;;;2.03;1.00;;;;;;;17.92;50.54;96049.97;5011426;28;24480;-80
2021/10/01 12:24:29;;;;;;;3.25;0.90;;;;;;;18.06;53.32;96049.59;5010896;28;24953;-80
2021/10/01 12:26:56;;;;;;;1.52;1.10;;;;;;;18.13;50.59;96044.59;5011350;28;24436;-80
2021/10/01 12:29:24;;;;;;;3.42;1.00;;;;;;;18.21;51.58;96043.97;5012374;28;24881;-81
2021/10/01 12:31:53;;;;;;;2.95;1.23;;;;;;;18.43;49.50;96034.97;5011643;28;24524;-81
2021/10/01 12:34:22;;;;;;;2.08;0.82;;;;;;;18.44;49.68;96042.72;5011515;28;24459;-80
2021/10/01 12:36:51;;;;;;;1.90;1.00;;;;;;;18.61;49.23;96036.78;5011037;28;24475;-80
2021/10/01 12:39:19;;;;;;;1.88;0.90;;;;;;;18.50;49.98;96036.06;5011283;28;24782;-81
2021/10/01 12:41:45;;;;;;;1.77;1.00;;;;;;;18.48;49.31;96025.75;5012407;28;24448;-80
2021/10/01 12:44:15;;;;;;;2.72;1.20;;;;;;;18.59;48.57;96027.41;5013451;28;24433;-81
2021/10/01 12:46:45;;;;;;;6.32;1.20;;;;;;;18.58;49.50;96025.75;5012254;28;24432;-79
2021/10/01 12:49:19;;;;;;;3.60;1.23;;;;;;;18.79;49.79;96030.84;5012395;28;24426;-78
2021/10/01 12:51:58;;;;;;;2.50;1.20;;;;;;;18.58;49.11;96023.13;5012102;28;24435;-78
2021/10/01 12:54:27;;;;;;;1.50;0.98;;;;;;;18.71;48.15;96021.06;5011928;28;24980;-78
2021/10/01 12:57:15;;;;;;;2.05;0.98;;;;;;;18.54;49.47;96013.84;5012855;28;24467;-78
2021/10/01 12:59:44;;;;;;;2.22;1.15;;;;;;;18.68;48.50;96009.97;5013239;28;24416;-78
2021/10/01 13:02:13;;;;;;;2.40;1.03;;;;;;;18.56;51.74;96004.06;5012288;28;24467;-78
2021/10/01 13:04:58;;;;;;;2.53;1.20;;;;;;;18.76;49.93;96010.13;5011978;28;24953;-78
2021/10/01 13:07:30;;;;;;;4.65;1.50;;;;;;;18.69;48.11;96001.97;5016327;28;24432;-78
2021/10/01 13:10:00;;;;;;;3.80;1.40;;;;;;;18.81;46.47;95986.94;5015477;28;24428;-78
2021/10/01 13:12:31;;;;;;;4.43;1.50;;;;;;;18.81;45.26;95987.75;5015678;28;24420;-78